Sumisemaru No38 — JM6237 — position and weather

sailwx.info

Track history (hours):
 
Tides and Currents Weather Stations Pressure Air Temp Water Temp Dewpoint Dewpoint Depression Visibility Wind Speed Wind Dir Waves Ship Positions

Sumisemaru No38

Last reported at 2014-Mar-26 09:33 UTC. Time now 2014-Nov-28 05:44 UTC.
Position N 34°37' E 134°54'.
Warning: this ship's position is months out of date.

Length 70 m; draft 4.6 m.

Type: Cargo ship. MMSI: 431600024.

Date/timePositionNaut miles runAvg speedWind from/ knotsBaromVisibWave heightAir tempDewpointWater temp
2014-Mar-26 09:33N 34°37' E 134°54'1313.0
2014-Mar-26 08:33N 34°36' E 135°10'1312.5
2014-Mar-26 07:33N 34°39' E 135°25'3 0.4
2014-Mar-26 00:04N 34°38' E 135°28'0 0.1
2014-Mar-25 22:18N 34°38' E 135°28'5 7.0
2014-Mar-25 21:33N 34°37' E 135°21'3 2.5
2014-Mar-25 20:28N 34°36' E 135°19'0 0.0
2014-Mar-25 19:10N 34°36' E 135°19'0 0.0
2014-Mar-25 17:28N 34°36' E 135°19'0 0.0
2014-Mar-25 16:28N 34°36' E 135°19'0 0.0
2014-Mar-25 15:22N 34°36' E 135°19'0 0.0
2014-Mar-25 14:22N 34°36' E 135°19'0 0.0
2014-Mar-25 13:28N 34°36' E 135°19'0 0.0
2014-Mar-25 12:28N 34°35' E 135°19'0 0.0
2014-Mar-25 11:28N 34°35' E 135°19'0 0.0
2014-Mar-25 10:28N 34°35' E 135°19'1 1.5
2014-Mar-25 09:33N 34°35' E 135°17'1111.4
2014-Mar-25 08:33N 34°36' E 135°03'  
2014-Mar-17 09:23N 34°38' E 134°51'1012.7
2014-Mar-17 08:33N 34°36' E 135°03'1212.4
2014-Mar-17 07:34N 34°38' E 135°18'14 1.2
2014-Mar-16 19:33N 34°26' E 135°10'1110.9
2014-Mar-16 18:30N 34°16' E 135°03'  
Track history (hours):
 
Tides and Currents Weather Stations Pressure Air Temp Water Temp Dewpoint Dewpoint Depression Visibility Wind Speed Wind Dir Waves Ship Positions

Sumisemaru No38

Last reported at 2014-Mar-26 09:33 UTC. Time now 2014-Nov-28 05:44 UTC.
Position N 34°37' E 134°54'.
Warning: this ship's position is months out of date.

Length 70 m; draft 4.6 m.

Type: Cargo ship. MMSI: 431600024.

Date/timePositionNaut miles runAvg speedWind from/ knotsBaromVisibWave heightAir tempDewpointWater temp
2014-Mar-26 09:33N 34°37' E 134°54'1313.0
2014-Mar-26 08:33N 34°36' E 135°10'1312.5
2014-Mar-26 07:33N 34°39' E 135°25'3 0.4
2014-Mar-26 00:04N 34°38' E 135°28'0 0.1
2014-Mar-25 22:18N 34°38' E 135°28'5 7.0
2014-Mar-25 21:33N 34°37' E 135°21'3 2.5
2014-Mar-25 20:28N 34°36' E 135°19'0 0.0
2014-Mar-25 19:10N 34°36' E 135°19'0 0.0
2014-Mar-25 17:28N 34°36' E 135°19'0 0.0
2014-Mar-25 16:28N 34°36' E 135°19'0 0.0
2014-Mar-25 15:22N 34°36' E 135°19'0 0.0
2014-Mar-25 14:22N 34°36' E 135°19'0 0.0
2014-Mar-25 13:28N 34°36' E 135°19'0 0.0
2014-Mar-25 12:28N 34°35' E 135°19'0 0.0
2014-Mar-25 11:28N 34°35' E 135°19'0 0.0
2014-Mar-25 10:28N 34°35' E 135°19'1 1.5
2014-Mar-25 09:33N 34°35' E 135°17'1111.4
2014-Mar-25 08:33N 34°36' E 135°03'  
2014-Mar-17 09:23N 34°38' E 134°51'1012.7
2014-Mar-17 08:33N 34°36' E 135°03'1212.4
2014-Mar-17 07:34N 34°38' E 135°18'14 1.2
2014-Mar-16 19:33N 34°26' E 135°10'1110.9
2014-Mar-16 18:30N 34°16' E 135°03'  

Dump ship's entire track history